Time;durP1;ratioP1;P1;durP2;ratioP2;P2;SDS_P1;SDS_P2;PMS_P1;PMS_P2;Temp;Humidity;BMP_temperature;BMP_pressure;BME280_temperature;BME280_humidity;BME280_pressure;Samples;Min_cycle;Max_cycle;Signal;HPM_P1;HPM_P2
2022/04/12 00:00:24;;;;;;;7.32;2.03;;;;;;;6.09;100.00;101758.09;10191148;28;20645;-63
2022/04/12 00:05:20;;;;;;;8.25;2.70;;;;;;;6.15;100.00;101760.84;10187240;28;20077;-64
2022/04/12 00:10:33;;;;;;;7.18;1.95;;;;;;;6.07;100.00;101754.81;10191741;28;20459;-65
2022/04/12 00:15:30;;;;;;;7.38;2.00;;;;;;;6.04;100.00;101749.13;10180509;28;20050;-64
2022/04/12 00:20:28;;;;;;;7.35;2.38;;;;;;;6.05;100.00;101751.53;10191003;28;20038;-63
2022/04/12 00:25:25;;;;;;;9.48;2.03;;;;;;;5.89;100.00;101747.06;10184371;28;20448;-65
2022/04/12 00:30:23;;;;;;;6.57;2.08;;;;;;;5.89;100.00;101752.50;10190370;28;20085;-64
2022/04/12 00:35:21;;;;;;;7.20;2.22;;;;;;;5.93;100.00;101748.19;10187206;28;20065;-64
2022/04/12 00:40:19;;;;;;;7.80;2.25;;;;;;;5.89;100.00;101747.06;10190941;28;20397;-66
2022/04/12 00:45:16;;;;;;;11.23;2.33;;;;;;;5.83;100.00;101742.69;10177304;28;20049;-66
2022/04/12 00:50:13;;;;;;;6.82;2.30;;;;;;;5.76;100.00;101733.97;10190685;28;20046;-65
2022/04/12 00:55:10;;;;;;;6.47;2.05;;;;;;;5.79;100.00;101730.72;10185833;28;20084;-65
2022/04/12 01:00:09;;;;;;;8.13;2.13;;;;;;;5.70;100.00;101717.63;10198727;28;20046;-65
2022/04/12 01:05:06;;;;;;;7.00;1.80;;;;;;;5.67;100.00;101710.03;10182031;28;20057;-65
2022/04/12 01:10:04;;;;;;;8.45;3.28;;;;;;;5.69;100.00;101709.78;10203467;28;20451;-65
2022/04/12 01:15:18;;;;;;;6.95;2.17;;;;;;;5.79;100.00;101703.59;10191876;28;20112;-66
2022/04/12 01:20:16;;;;;;;5.82;2.38;;;;;;;5.74;100.00;101695.41;10194655;28;20081;-63
2022/04/12 01:25:13;;;;;;;8.85;2.33;;;;;;;5.59;100.00;101683.38;10196737;28;20110;-63
2022/04/12 01:30:10;;;;;;;5.32;2.20;;;;;;;5.79;100.00;101684.59;10188229;28;20120;-62
2022/04/12 01:35:07;;;;;;;8.77;2.55;;;;;;;5.70;100.00;101676.94;10193920;28;20080;-63
2022/04/12 01:40:06;;;;;;;6.70;2.35;;;;;;;5.52;100.00;101671.09;10194046;28;20104;-62
2022/04/12 01:45:02;;;;;;;7.95;2.50;;;;;;;5.32;100.00;101666.38;10188068;28;20096;-63
2022/04/12 01:49:59;;;;;;;8.32;2.45;;;;;;;5.44;100.00;101664.28;10193876;28;20113;-63
2022/04/12 01:54:55;;;;;;;8.02;2.47;;;;;;;5.49;100.00;101661.59;10183700;28;20104;-63
2022/04/12 01:59:52;;;;;;;7.72;2.15;;;;;;;5.41;100.00;101659.38;10196271;28;20133;-63
2022/04/12 02:04:48;;;;;;;6.60;2.10;;;;;;;5.47;100.00;101661.03;10184185;28;20133;-63
2022/04/12 02:09:45;;;;;;;6.25;2.25;;;;;;;5.37;100.00;101652.84;10192381;28;20514;-63
2022/04/12 02:14:41;;;;;;;7.47;2.13;;;;;;;5.40;100.00;101646.88;10189803;28;20054;-63
2022/04/12 02:19:38;;;;;;;6.60;1.90;;;;;;;5.33;100.00;101640.88;10184115;28;20058;-63
2022/04/12 02:24:34;;;;;;;4.88;1.85;;;;;;;5.23;100.00;101641.59;10180817;28;20046;-63
2022/04/12 02:29:31;;;;;;;6.65;2.63;;;;;;;5.34;100.00;101642.50;10190711;28;20428;-63
2022/04/12 02:34:27;;;;;;;7.55;2.53;;;;;;;5.22;100.00;101638.09;10187771;28;20074;-63
2022/04/12 02:39:24;;;;;;;9.93;2.75;;;;;;;5.13;100.00;101641.50;10188340;28;20455;-63
2022/04/12 02:44:20;;;;;;;6.32;2.33;;;;;;;5.17;100.00;101653.47;10188681;28;20034;-63
2022/04/12 02:49:16;;;;;;;6.75;2.35;;;;;;;5.10;100.00;101650.97;10192743;28;20053;-62
2022/04/12 02:54:14;;;;;;;7.45;2.40;;;;;;;5.16;100.00;101644.53;10190831;28;20560;-62
2022/04/12 02:59:10;;;;;;;9.20;2.45;;;;;;;5.16;100.00;101646.44;10186591;28;20046;-63
2022/04/12 03:04:07;;;;;;;6.38;2.35;;;;;;;5.12;100.00;101639.88;10174084;28;20141;-65
2022/04/12 03:09:03;;;;;;;5.60;2.33;;;;;;;5.11;100.00;101644.50;10189794;28;20537;-64
2022/04/12 03:13:59;;;;;;;6.82;2.60;;;;;;;5.10;100.00;101642.84;10192419;28;20221;-64
2022/04/12 03:18:56;;;;;;;7.53;2.20;;;;;;;4.98;100.00;101644.91;10176309;28;20085;-65
2022/04/12 03:23:52;;;;;;;8.32;2.20;;;;;;;5.02;100.00;101638.72;10171115;28;20034;-65
2022/04/12 03:28:49;;;;;;;6.65;2.63;;;;;;;4.93;100.00;101650.31;10169338;28;20128;-65
2022/04/12 03:33:46;;;;;;;5.47;2.45;;;;;;;4.94;100.00;101654.63;10181183;28;20046;-64
2022/04/12 03:38:48;;;;;;;7.88;2.50;;;;;;;4.99;100.00;101646.53;10164326;28;20113;-64
2022/04/12 03:43:46;;;;;;;11.65;2.92;;;;;;;4.96;100.00;101652.47;10173342;28;20411;-65
2022/04/12 03:48:43;;;;;;;8.95;2.30;;;;;;;5.05;100.00;101646.34;10176300;28;20500;-65
2022/04/12 03:53:40;;;;;;;6.20;2.45;;;;;;;5.04;100.00;101633.06;10187684;28;20120;-65
2022/04/12 03:58:38;;;;;;;8.27;2.63;;;;;;;4.85;100.00;101633.44;10159364;28;20116;-65
2022/04/12 04:03:35;;;;;;;7.10;2.85;;;;;;;5.03;100.00;101634.13;10162505;28;20064;-65
2022/04/12 04:08:32;;;;;;;5.53;2.25;;;;;;;4.94;100.00;101632.94;10168010;28;20535;-65
2022/04/12 04:13:35;;;;;;;8.75;2.72;;;;;;;4.88;100.00;101637.53;10170859;28;20038;-65
2022/04/12 04:18:34;;;;;;;7.60;2.50;;;;;;;4.82;100.00;101639.34;10156253;28;20050;-65
2022/04/12 04:23:30;;;;;;;6.70;2.60;;;;;;;4.74;100.00;101628.19;10164647;28;20052;-65
2022/04/12 04:28:29;;;;;;;6.45;2.95;;;;;;;4.80;100.00;101625.25;10192659;28;20145;-65
2022/04/12 04:33:26;;;;;;;7.53;2.47;;;;;;;4.74;100.00;101629.00;10195469;28;20054;-63
2022/04/12 04:38:22;;;;;;;9.27;2.60;;;;;;;4.95;100.00;101618.34;10188468;28;20108;-63
2022/04/12 04:43:19;;;;;;;4.93;2.88;;;;;;;4.98;100.00;101624.03;10176639;28;20121;-64
2022/04/12 04:48:15;;;;;;;9.95;4.72;;;;;;;5.02;100.00;101618.94;10186031;28;20050;-64
2022/04/12 04:53:12;;;;;;;10.23;3.28;;;;;;;4.87;100.00;101626.94;10172631;28;20160;-64
2022/04/12 04:58:09;;;;;;;5.53;2.63;;;;;;;5.06;100.00;101625.50;10166506;28;20054;-64
2022/04/12 05:03:06;;;;;;;7.22;2.67;;;;;;;5.25;100.00;101637.56;10173400;28;20112;-64
2022/04/12 05:08:03;;;;;;;6.38;2.72;;;;;;;5.36;100.00;101643.03;10172549;28;20038;-64
2022/04/12 05:13:00;;;;;;;5.38;2.58;;;;;;;5.23;100.00;101645.13;10164460;28;20153;-65
2022/04/12 05:17:57;;;;;;;6.28;3.00;;;;;;;5.41;100.00;101652.06;10174863;28;20061;-65
2022/04/12 05:22:54;;;;;;;7.22;2.30;;;;;;;5.53;100.00;101651.88;10171297;28;20104;-65
2022/04/12 05:27:50;;;;;;;6.57;2.83;;;;;;;5.47;100.00;101658.31;10171966;28;20077;-65
2022/04/12 05:32:47;;;;;;;9.98;3.08;;;;;;;5.66;100.00;101672.28;10185808;28;20055;-65
2022/04/12 05:37:49;;;;;;;9.27;3.25;;;;;;;5.73;100.00;101667.44;10190979;28;20576;-65
2022/04/12 05:42:46;;;;;;;9.13;3.55;;;;;;;5.68;100.00;101679.06;10185408;28;20084;-65
2022/04/12 05:47:45;;;;;;;8.50;2.88;;;;;;;5.76;100.00;101687.84;10187917;28;20436;-65
2022/04/12 05:52:43;;;;;;;13.73;3.95;;;;;;;5.94;100.00;101695.59;10191505;28;20373;-66
2022/04/12 05:57:53;;;;;;;13.25;3.35;;;;;;;6.09;100.00;101700.25;10188245;28;20088;-65
2022/04/12 06:02:51;;;;;;;7.38;3.20;;;;;;;5.96;100.00;101693.41;10190495;28;20455;-65
2022/04/12 06:07:48;;;;;;;11.82;2.83;;;;;;;6.33;100.00;101692.50;10189936;28;20731;-65
2022/04/12 06:12:45;;;;;;;5.80;2.75;;;;;;;6.36;100.00;101683.84;10180598;28;20085;-66
2022/04/12 06:17:42;;;;;;;5.20;2.25;;;;;;;6.41;100.00;101678.41;10192409;28;20054;-65
2022/04/12 06:22:39;;;;;;;8.70;2.67;;;;;;;6.49;100.00;101658.88;10190834;28;20169;-65
2022/04/12 06:27:45;;;;;;;6.97;2.83;;;;;;;6.48;100.00;101651.81;10189649;28;20061;-65
2022/04/12 06:32:43;;;;;;;8.50;3.47;;;;;;;6.42;100.00;101642.00;10184280;28;20077;-65
2022/04/12 06:37:41;;;;;;;7.43;2.97;;;;;;;6.67;100.00;101640.44;10188199;28;20515;-65
2022/04/12 06:42:38;;;;;;;8.70;3.70;;;;;;;6.68;100.00;101644.78;10178711;28;20088;-65
2022/04/12 06:47:35;;;;;;;6.32;3.58;;;;;;;6.92;100.00;101659.50;10187041;28;20058;-65
2022/04/12 06:52:32;;;;;;;9.15;2.55;;;;;;;7.10;100.00;101668.22;10177578;28;20128;-65
2022/04/12 06:57:35;;;;;;;6.55;3.00;;;;;;;7.14;100.00;101675.56;10187490;28;20136;-65
2022/04/12 07:02:32;;;;;;;6.85;2.53;;;;;;;7.24;100.00;101669.34;10190486;28;20112;-66
2022/04/12 07:07:29;;;;;;;9.40;2.97;;;;;;;7.42;100.00;101669.84;10181919;28;20072;-66
2022/04/12 07:12:25;;;;;;;8.50;2.50;;;;;;;7.57;100.00;101672.56;10180295;28;20078;-64
2022/04/12 07:17:21;;;;;;;8.95;2.80;;;;;;;7.78;100.00;101690.50;10181889;28;20065;-66
2022/04/12 07:22:18;;;;;;;7.63;3.00;;;;;;;7.82;100.00;101689.94;10187624;28;20046;-65
2022/04/12 07:27:14;;;;;;;6.82;2.30;;;;;;;7.95;100.00;101692.09;10189403;28;20462;-66
2022/04/12 07:32:11;;;;;;;7.60;2.85;;;;;;;8.10;100.00;101697.53;10184431;28;20478;-66
2022/04/12 07:37:08;;;;;;;7.82;2.95;;;;;;;8.24;100.00;101697.75;10187121;28;20625;-66
2022/04/12 07:42:05;;;;;;;6.15;2.80;;;;;;;8.40;100.00;101698.50;10190675;28;20046;-66
2022/04/12 07:47:05;;;;;;;9.07;2.55;;;;;;;8.42;100.00;101699.03;10188977;28;20072;-66
2022/04/12 07:52:02;;;;;;;5.88;2.30;;;;;;;8.68;100.00;101707.09;10173420;28;20416;-65
2022/04/12 07:56:58;;;;;;;9.77;2.83;;;;;;;8.83;98.59;101709.75;10181583;28;20321;-65
2022/04/12 08:01:55;;;;;;;7.85;2.92;;;;;;;8.94;97.39;101700.41;10187244;28;20045;-65
2022/04/12 08:06:51;;;;;;;7.38;2.90;;;;;;;9.11;95.88;101699.22;10176662;28;20426;-65
2022/04/12 08:11:48;;;;;;;11.57;2.97;;;;;;;9.28;96.11;101685.97;10185022;28;20638;-65
2022/04/12 08:16:45;;;;;;;6.55;2.13;;;;;;;9.40;90.62;101675.53;10175291;28;20480;-65
2022/04/12 08:21:42;;;;;;;12.70;3.08;;;;;;;9.50;90.57;101680.06;10189442;28;20057;-63
2022/04/12 08:26:39;;;;;;;6.45;2.50;;;;;;;9.39;89.28;101676.59;10180057;28;20101;-63
2022/04/12 08:31:35;;;;;;;6.65;2.80;;;;;;;9.56;94.05;101675.34;10188882;28;20104;-63
2022/04/12 08:36:32;;;;;;;5.40;2.42;;;;;;;9.67;83.44;101674.16;10180703;28;20046;-63
2022/04/12 08:41:29;;;;;;;10.63;2.20;;;;;;;9.77;91.01;101662.31;10183123;28;20142;-62
2022/04/12 08:46:27;;;;;;;6.72;2.13;;;;;;;9.83;88.98;101656.50;10188457;28;20419;-63
2022/04/12 08:51:29;;;;;;;5.78;2.58;;;;;;;10.13;84.47;101670.94;10183157;28;20052;-62
2022/04/12 08:56:27;;;;;;;6.78;2.58;;;;;;;10.43;83.74;101658.03;10186452;28;20615;-63
2022/04/12 09:01:24;;;;;;;4.75;2.72;;;;;;;10.56;76.89;101649.13;10173694;28;20058;-64
2022/04/12 09:06:20;;;;;;;7.85;2.50;;;;;;;10.85;78.74;101648.13;10160471;28;20404;-63
2022/04/12 09:11:17;;;;;;;8.38;3.00;;;;;;;11.08;72.22;101643.69;10168145;28;20128;-63
2022/04/12 09:16:14;;;;;;;6.28;2.80;;;;;;;11.32;68.37;101635.31;10164977;28;20093;-63
2022/04/12 09:21:18;;;;;;;8.97;3.43;;;;;;;11.55;68.14;101628.88;10159065;28;20043;-63
2022/04/12 09:26:23;;;;;;;7.82;3.88;;;;;;;11.90;60.81;101647.72;10156320;28;20477;-63
2022/04/12 09:31:20;;;;;;;7.00;4.07;;;;;;;12.07;62.09;101638.88;10172055;28;20845;-64
2022/04/12 09:36:17;;;;;;;10.00;4.15;;;;;;;12.34;61.15;101633.38;10169565;28;20042;-65
2022/04/12 09:41:23;;;;;;;8.20;4.57;;;;;;;12.52;57.23;101628.88;10178425;28;20061;-65
2022/04/12 09:46:19;;;;;;;8.98;3.90;;;;;;;12.81;54.16;101620.25;10171965;28;20046;-64
2022/04/12 09:51:17;;;;;;;8.77;4.50;;;;;;;12.89;52.85;101612.41;10164000;28;20046;-64
2022/04/12 09:56:20;;;;;;;9.63;5.05;;;;;;;13.28;51.88;101605.41;10165743;28;20046;-64
2022/04/12 10:01:18;;;;;;;13.15;4.60;;;;;;;13.57;51.14;101611.19;10174458;28;20467;-64
2022/04/12 10:06:18;;;;;;;10.35;4.80;;;;;;;13.54;51.55;101611.84;10173121;28;20152;-63
2022/04/12 10:11:14;;;;;;;8.55;4.80;;;;;;;13.66;50.85;101601.06;10157694;28;20077;-62
2022/04/12 10:16:14;;;;;;;9.25;4.63;;;;;;;13.77;50.51;101589.81;10152340;28;20077;-63
2022/04/12 10:21:12;;;;;;;7.55;4.38;;;;;;;13.81;51.68;101601.78;10167901;28;20596;-63
2022/04/12 10:26:10;;;;;;;8.50;4.80;;;;;;;14.12;49.34;101609.16;10162767;28;20060;-63
2022/04/12 10:31:13;;;;;;;11.40;5.35;;;;;;;14.19;48.33;101601.22;10166477;28;20099;-63
2022/04/12 10:36:54;;;;;;;9.00;5.18;;;;;;;13.97;50.36;101586.47;10169893;28;20068;-64
2022/04/12 10:42:14;;;;;;;10.57;5.40;;;;;;;13.95;49.18;101574.16;10191945;28;20045;-63
2022/04/12 10:47:27;;;;;;;9.82;4.53;;;;;;;14.38;50.32;101549.47;10187272;28;20041;-64
2022/04/12 10:52:42;;;;;;;10.38;5.15;;;;;;;15.59;47.43;101553.09;10179215;28;20042;-64
2022/04/12 10:57:39;;;;;;;10.63;5.30;;;;;;;16.50;45.67;101559.06;10175209;28;20100;-62
2022/04/12 11:02:59;;;;;;;7.88;4.60;;;;;;;16.60;44.16;101542.06;10172449;28;20054;-62
2022/04/12 11:07:56;;;;;;;8.32;5.18;;;;;;;16.96;42.04;101537.84;10169093;28;20132;-63
2022/04/12 11:13:10;;;;;;;9.02;5.18;;;;;;;17.68;42.68;101543.00;10166802;28;20049;-63
2022/04/12 11:18:15;;;;;;;11.60;5.32;;;;;;;18.06;39.49;101536.31;10164145;28;20211;-64
2022/04/12 11:23:14;;;;;;;10.13;5.68;;;;;;;18.54;39.00;101520.69;10161226;28;20124;-63
2022/04/12 11:28:14;;;;;;;10.98;5.38;;;;;;;19.17;37.64;101513.66;10167010;28;20456;-63
2022/04/12 11:33:11;;;;;;;12.43;5.00;;;;;;;20.00;37.36;101505.34;10160163;28;20093;-63
2022/04/12 11:38:07;;;;;;;9.68;5.30;;;;;;;19.81;36.13;101493.06;10159375;28;20077;-62
2022/04/12 11:43:18;;;;;;;8.32;4.95;;;;;;;19.05;37.12;101490.44;10160990;28;20046;-62
2022/04/12 11:48:15;;;;;;;12.15;5.70;;;;;;;19.81;36.38;101493.06;10158912;28;20046;-62
2022/04/12 11:53:11;;;;;;;10.68;5.57;;;;;;;20.03;34.92;101491.56;10161637;28;20133;-62
2022/04/12 11:58:10;;;;;;;11.00;5.35;;;;;;;20.57;36.15;101481.56;10189801;28;20821;-62
2022/04/12 12:03:15;;;;;;;8.93;5.18;;;;;;;20.88;32.96;101476.97;10175742;28;20046;-63
2022/04/12 12:08:12;;;;;;;10.05;5.60;;;;;;;21.09;32.29;101477.31;10184816;28;20071;-61
2022/04/12 12:13:08;;;;;;;15.00;6.53;;;;;;;21.01;33.51;101483.97;10167705;28;20129;-62
2022/04/12 12:18:06;;;;;;;10.90;5.50;;;;;;;21.50;33.10;101479.59;10150570;28;20090;-62
2022/04/12 12:23:05;;;;;;;10.13;5.25;;;;;;;22.25;30.69;101466.72;10155374;28;20098;-62
2022/04/12 12:28:02;;;;;;;9.75;5.60;;;;;;;22.24;29.61;101462.34;10155969;28;20046;-62
2022/04/12 12:32:58;;;;;;;10.88;6.15;;;;;;;22.09;31.15;101457.75;10155836;28;20550;-62
2022/04/12 12:38:26;;;;;;;10.88;5.60;;;;;;;22.21;31.92;101451.94;10155944;28;20481;-62
2022/04/12 12:43:26;;;;;;;11.88;6.38;;;;;;;21.93;32.29;101441.22;10169483;28;20073;-63
2022/04/12 12:48:22;;;;;;;10.02;6.45;;;;;;;21.60;33.89;101440.00;10184298;28;20100;-63
2022/04/12 12:53:26;;;;;;;9.98;6.10;;;;;;;22.10;32.11;101421.16;10193093;28;20096;-62
2022/04/12 12:58:29;;;;;;;11.50;6.88;;;;;;;22.77;30.03;101416.72;10192878;28;20042;-63
2022/04/12 13:03:26;;;;;;;11.07;6.90;;;;;;;22.88;29.07;101418.41;10188310;28;20050;-63
2022/04/12 13:08:24;;;;;;;13.27;6.70;;;;;;;22.09;32.21;101404.84;10190228;28;20476;-63
2022/04/12 13:13:20;;;;;;;9.25;6.10;;;;;;;21.93;30.51;101397.50;10184450;28;20626;-63
2022/04/12 13:18:18;;;;;;;9.90;6.50;;;;;;;21.88;32.17;101389.47;10189848;28;20092;-62
2022/04/12 13:23:15;;;;;;;11.07;6.70;;;;;;;22.01;31.02;101382.47;10177301;28;20129;-63
2022/04/12 13:28:11;;;;;;;12.27;6.60;;;;;;;21.92;31.84;101379.19;10173971;28;20135;-63
2022/04/12 13:33:08;;;;;;;10.18;5.90;;;;;;;21.84;31.92;101385.88;10174626;28;20502;-62
2022/04/12 13:38:04;;;;;;;9.95;6.43;;;;;;;22.20;30.25;101377.91;10159537;28;20090;-63
2022/04/12 13:43:03;;;;;;;12.90;6.60;;;;;;;22.22;34.09;101358.88;10170514;28;20495;-64
2022/04/12 13:48:04;;;;;;;13.15;6.75;;;;;;;22.03;31.55;101384.88;10173387;28;20050;-61
2022/04/12 13:53:00;;;;;;;10.77;5.82;;;;;;;21.71;32.95;101368.59;10169740;28;20096;-62
2022/04/12 13:57:57;;;;;;;12.15;6.43;;;;;;;21.67;31.84;101378.06;10182982;28;20081;-62
2022/04/12 14:02:53;;;;;;;9.98;5.63;;;;;;;21.67;31.76;101383.63;10188063;28;20171;-62
2022/04/12 14:07:50;;;;;;;9.07;5.47;;;;;;;22.43;31.32;101375.00;10189717;28;20116;-62
2022/04/12 14:12:46;;;;;;;10.32;5.25;;;;;;;22.34;32.22;101382.84;10180691;28;20496;-63
2022/04/12 14:17:43;;;;;;;8.02;5.20;;;;;;;22.48;29.59;101383.78;10188873;28;20081;-61
2022/04/12 14:22:59;;;;;;;11.13;5.53;;;;;;;22.06;27.82;101384.13;10188569;28;20050;-62
2022/04/12 14:27:56;;;;;;;9.38;4.93;;;;;;;21.37;28.67;101376.84;10164972;28;20076;-62
2022/04/12 14:32:53;;;;;;;8.68;5.30;;;;;;;21.36;27.87;101372.47;10165792;28;20161;-62
2022/04/12 14:37:49;;;;;;;13.07;5.13;;;;;;;21.44;29.99;101365.06;10177710;28;20054;-62
2022/04/12 14:42:45;;;;;;;13.00;5.07;;;;;;;21.10;29.66;101364.94;10181512;28;20046;-62
2022/04/12 14:47:42;;;;;;;8.75;5.00;;;;;;;20.67;30.42;101339.25;10181481;28;20080;-62
2022/04/12 14:52:39;;;;;;;11.05;5.45;;;;;;;20.21;29.74;101322.56;10194560;28;20128;-62
2022/04/12 14:57:35;;;;;;;10.27;5.95;;;;;;;20.12;30.53;101313.66;10176299;28;20169;-61
2022/04/12 15:02:32;;;;;;;9.05;5.60;;;;;;;20.20;30.35;101334.06;10190989;28;20073;-62
2022/04/12 15:07:28;;;;;;;8.15;4.88;;;;;;;19.96;29.81;101317.38;10181458;28;20041;-62
2022/04/12 15:12:25;;;;;;;8.73;4.95;;;;;;;20.07;30.09;101322.31;10190144;28;20065;-62
2022/04/12 15:17:24;;;;;;;8.05;5.05;;;;;;;19.55;30.50;101325.22;10184370;28;20168;-63
2022/04/12 15:22:20;;;;;;;10.15;5.25;;;;;;;19.81;31.48;101326.56;10189606;28;20042;-63
2022/04/12 15:27:17;;;;;;;8.75;5.15;;;;;;;19.74;31.52;101320.88;10189753;28;20034;-63
2022/04/12 15:32:13;;;;;;;9.00;5.38;;;;;;;19.35;31.83;101331.94;10160149;28;20563;-64
2022/04/12 15:37:10;;;;;;;10.05;5.75;;;;;;;19.38;32.13;101339.53;10157516;28;20050;-63
2022/04/12 15:42:07;;;;;;;8.05;5.10;;;;;;;19.30;32.70;101335.00;10157998;28;20132;-64
2022/04/12 15:47:03;;;;;;;9.23;4.90;;;;;;;19.05;34.09;101343.56;10156557;28;20139;-63
2022/04/12 15:52:00;;;;;;;9.57;6.20;;;;;;;18.89;33.72;101337.22;10170181;28;20060;-62
2022/04/12 15:56:56;;;;;;;10.45;5.38;;;;;;;18.43;34.69;101325.78;10157757;28;20101;-63
2022/04/12 16:01:53;;;;;;;10.77;5.43;;;;;;;18.26;37.90;101330.50;10154357;28;20042;-64
2022/04/12 16:06:51;;;;;;;9.13;5.28;;;;;;;18.10;38.66;101329.66;10159534;28;20054;-63
2022/04/12 16:11:48;;;;;;;10.05;5.43;;;;;;;17.99;37.18;101329.38;10169092;28;20046;-63
2022/04/12 16:16:50;;;;;;;7.88;4.95;;;;;;;17.73;39.09;101327.06;10155253;28;20427;-63
2022/04/12 16:21:50;;;;;;;10.23;4.97;;;;;;;17.65;37.60;101333.53;10158792;28;20518;-63
2022/04/12 16:26:47;;;;;;;9.80;5.13;;;;;;;17.38;40.27;101340.63;10163821;28;20066;-63
2022/04/12 16:31:43;;;;;;;9.35;4.85;;;;;;;17.49;40.99;101335.41;10177553;28;20112;-63
2022/04/12 16:36:40;;;;;;;9.80;4.90;;;;;;;17.52;41.27;101348.53;10172167;28;20086;-62
2022/04/12 16:41:36;;;;;;;8.55;4.90;;;;;;;17.33;43.09;101344.44;10178641;28;20476;-63
2022/04/12 16:46:36;;;;;;;11.07;5.28;;;;;;;17.20;41.91;101342.88;10162899;28;20498;-63
2022/04/12 16:51:33;;;;;;;10.63;5.68;;;;;;;17.25;39.88;101339.84;10168451;28;20181;-65
2022/04/12 16:56:29;;;;;;;9.50;4.53;;;;;;;16.99;42.52;101338.28;10158312;28;20573;-68
2022/04/12 17:01:29;;;;;;;8.38;5.20;;;;;;;17.09;42.62;101330.66;10174913;28;20642;-68
2022/04/12 17:06:27;;;;;;;9.60;5.40;;;;;;;16.80;41.78;101326.97;10178389;28;20042;-64
2022/04/12 17:11:24;;;;;;;7.22;4.28;;;;;;;16.77;43.94;101313.84;10179434;28;20496;-66
2022/04/12 17:16:21;;;;;;;11.68;4.95;;;;;;;16.39;44.33;101314.97;10178943;28;20042;-65
2022/04/12 17:21:18;;;;;;;8.75;5.03;;;;;;;16.36;44.20;101307.38;10167413;28;20056;-65
2022/04/12 17:26:14;;;;;;;8.38;4.35;;;;;;;16.31;42.56;101310.34;10151430;28;20452;-66
2022/04/12 17:31:14;;;;;;;10.88;4.88;;;;;;;16.19;45.25;101306.41;10155185;28;20492;-65
2022/04/12 17:36:11;;;;;;;8.15;4.22;;;;;;;15.99;45.11;101304.56;10160683;28;20046;-65
2022/04/12 17:41:07;;;;;;;8.32;4.75;;;;;;;15.82;44.98;101301.97;10165418;28;20146;-65
2022/04/12 17:46:04;;;;;;;7.82;4.65;;;;;;;15.92;48.18;101307.88;10148540;28;20528;-65
2022/04/12 17:51:00;;;;;;;10.05;5.15;;;;;;;15.53;46.64;101301.69;10160733;28;20077;-65
2022/04/12 17:55:57;;;;;;;11.02;4.85;;;;;;;15.51;48.02;101292.97;10167072;28;20100;-65
2022/04/12 18:00:54;;;;;;;8.10;4.88;;;;;;;15.55;46.43;101279.31;10158208;28;20080;-66
2022/04/12 18:05:50;;;;;;;7.22;4.72;;;;;;;15.49;47.61;101255.88;10189862;28;20555;-65
2022/04/12 18:10:47;;;;;;;9.38;5.25;;;;;;;15.17;47.98;101255.47;10174427;28;20042;-65
2022/04/12 18:15:44;;;;;;;10.40;4.68;;;;;;;15.33;46.96;101253.72;10171905;28;20053;-65
2022/04/12 18:20:46;;;;;;;8.75;4.85;;;;;;;15.29;46.03;101230.75;10174604;28;20046;-65
2022/04/12 18:25:43;;;;;;;8.45;4.57;;;;;;;15.24;46.21;101238.41;10167207;28;20805;-65
2022/04/12 18:30:40;;;;;;;9.20;4.72;;;;;;;15.23;45.21;101234.06;10184160;28;20069;-65
2022/04/12 18:35:40;;;;;;;10.93;4.55;;;;;;;14.98;46.79;101241.38;10184006;28;20057;-65
2022/04/12 18:40:37;;;;;;;8.90;4.40;;;;;;;15.05;45.28;101252.66;10172103;28;20049;-65
2022/04/12 18:45:34;;;;;;;9.98;4.72;;;;;;;15.00;44.68;101283.16;10163323;28;20119;-65
2022/04/12 18:50:30;;;;;;;6.82;3.50;;;;;;;15.03;44.10;101310.00;10164564;28;20107;-65
2022/04/12 18:55:27;;;;;;;6.78;3.67;;;;;;;14.90;46.75;101351.22;10184261;28;20077;-65
2022/04/12 19:00:24;;;;;;;10.77;4.78;;;;;;;14.99;44.37;101333.84;10165081;28;20058;-66
2022/04/12 19:05:22;;;;;;;6.95;4.00;;;;;;;14.83;45.83;101339.94;10173494;28;20511;-65
2022/04/12 19:10:20;;;;;;;7.18;3.85;;;;;;;14.66;46.73;101340.78;10175754;28;20046;-65
2022/04/12 19:15:17;;;;;;;8.00;4.05;;;;;;;14.59;47.88;101361.72;10173126;28;20420;-65
2022/04/12 19:20:15;;;;;;;8.80;4.35;;;;;;;14.59;47.96;101369.97;10163619;28;20656;-65
2022/04/12 19:25:16;;;;;;;8.10;4.07;;;;;;;14.53;46.20;101367.38;10170237;28;20056;-66
2022/04/12 19:30:13;;;;;;;6.88;3.58;;;;;;;14.52;50.06;101368.50;10172290;28;20133;-65
2022/04/12 19:35:13;;;;;;;8.60;3.90;;;;;;;14.35;51.15;101371.31;10185284;28;20057;-65
2022/04/12 19:40:11;;;;;;;8.02;4.40;;;;;;;14.38;50.05;101367.09;10183592;28;20054;-65
2022/04/12 19:45:12;;;;;;;10.20;4.27;;;;;;;14.37;48.09;101365.50;10174379;28;20515;-65
2022/04/12 19:50:09;;;;;;;8.52;4.03;;;;;;;14.36;48.46;101361.91;10186461;28;20527;-65
2022/04/12 19:55:06;;;;;;;6.90;4.22;;;;;;;14.17;48.59;101372.47;10183295;28;20097;-65
2022/04/12 20:00:03;;;;;;;7.85;4.03;;;;;;;14.30;48.46;101371.47;10187524;28;20125;-64
2022/04/12 20:05:00;;;;;;;8.85;3.78;;;;;;;14.35;47.97;101374.06;10189183;28;20555;-65
2022/04/12 20:09:56;;;;;;;8.38;4.20;;;;;;;14.27;50.59;101383.97;10185845;28;20057;-65
2022/04/12 20:14:55;;;;;;;7.60;3.72;;;;;;;14.19;54.38;101381.22;10186548;28;20057;-65
2022/04/12 20:19:54;;;;;;;7.38;3.58;;;;;;;14.01;51.43;101375.72;10179685;28;20045;-65
2022/04/12 20:24:51;;;;;;;8.40;4.18;;;;;;;13.96;48.84;101375.09;10170343;28;20108;-65
2022/04/12 20:29:49;;;;;;;7.57;3.78;;;;;;;13.93;49.25;101384.00;10162280;28;20050;-65
2022/04/12 20:34:45;;;;;;;8.52;4.15;;;;;;;13.81;48.93;101381.91;10156152;28;20100;-65
2022/04/12 20:39:43;;;;;;;7.10;3.50;;;;;;;13.80;51.81;101380.25;10152263;28;20137;-66
2022/04/12 20:44:40;;;;;;;5.35;2.70;;;;;;;13.76;51.13;101374.63;10153592;28;20092;-66
2022/04/12 20:49:36;;;;;;;6.07;3.28;;;;;;;13.64;52.51;101377.97;10152372;28;20137;-66
2022/04/12 20:54:33;;;;;;;12.52;4.80;;;;;;;13.65;54.53;101373.31;10157696;28;20137;-65
2022/04/12 20:59:30;;;;;;;8.05;4.18;;;;;;;13.47;55.24;101367.00;10159613;28;20042;-67
2022/04/12 21:04:26;;;;;;;12.57;3.83;;;;;;;13.40;58.50;101369.41;10160500;28;20069;-66
2022/04/12 21:09:23;;;;;;;7.95;3.70;;;;;;;13.31;55.82;101368.59;10179399;28;20133;-66
2022/04/12 21:14:20;;;;;;;7.18;3.42;;;;;;;13.16;57.38;101376.13;10194613;28;20085;-66
2022/04/12 21:19:17;;;;;;;7.15;3.00;;;;;;;13.11;58.87;101365.28;10186479;28;20068;-64
2022/04/12 21:24:14;;;;;;;6.70;3.75;;;;;;;13.01;59.48;101365.56;10190868;28;20072;-64
2022/04/12 21:29:10;;;;;;;8.95;3.40;;;;;;;12.91;61.71;101354.91;10195065;28;20046;-67
2022/04/12 21:34:07;;;;;;;7.90;3.42;;;;;;;12.91;63.71;101355.69;10186147;28;20077;-67
2022/04/12 21:39:04;;;;;;;8.52;3.35;;;;;;;12.87;63.05;101353.91;10185868;28;20078;-68
2022/04/12 21:44:01;;;;;;;13.32;6.45;;;;;;;12.81;65.65;101345.81;10186545;28;20133;-67
2022/04/12 21:48:58;;;;;;;10.30;4.50;;;;;;;12.65;66.71;101350.13;10192372;28;20037;-66
2022/04/12 21:53:54;;;;;;;8.70;3.38;;;;;;;12.51;64.56;101352.13;10196087;28;20046;-65
2022/04/12 21:58:51;;;;;;;7.15;3.20;;;;;;;12.54;68.93;101351.53;10189138;28;20042;-65
2022/04/12 22:03:47;;;;;;;6.63;3.70;;;;;;;12.55;72.10;101353.13;10192012;28;20080;-65
2022/04/12 22:08:46;;;;;;;6.53;2.92;;;;;;;12.41;67.81;101343.03;10188398;28;20077;-65
2022/04/12 22:13:42;;;;;;;6.85;3.38;;;;;;;12.25;68.88;101350.06;10185616;28;20506;-66
2022/04/12 22:18:39;;;;;;;8.00;3.55;;;;;;;12.21;68.81;101349.09;10193410;28;20053;-66
2022/04/12 22:23:35;;;;;;;6.82;3.00;;;;;;;12.21;68.73;101344.41;10189622;28;20461;-65
2022/04/12 22:28:32;;;;;;;6.00;2.83;;;;;;;12.18;68.77;101339.56;10189538;28;20065;-65
2022/04/12 22:33:29;;;;;;;6.75;3.10;;;;;;;12.07;69.05;101337.38;10192988;28;20165;-64
2022/04/12 22:38:26;;;;;;;7.25;2.83;;;;;;;12.07;69.16;101340.09;10190978;28;20471;-64
2022/04/12 22:43:22;;;;;;;5.53;2.53;;;;;;;12.02;72.20;101346.53;10191970;28;20050;-66